Time;durP1;ratioP1;P1;durP2;ratioP2;P2;SDS_P1;SDS_P2;PMS_P1;PMS_P2;Temp;Humidity;BMP_temperature;BMP_pressure;BME280_temperature;BME280_humidity;BME280_pressure;Samples;Min_cycle;Max_cycle;Signal;HPM_P1;HPM_P2
2021/05/16 00:21:54;;;;;;;12.10;3.20;;;10.50;81.90;;;;;;4999585;28;20477;-88
2021/05/16 00:24:19;;;;;;;4.77;3.40;;;12.10;87.30;;;;;;4999702;28;20483;-89
2021/05/16 00:26:47;;;;;;;6.23;3.67;;;12.20;88.60;;;;;;4982564;28;20489;-90
2021/05/16 00:29:15;;;;;;;7.77;2.80;;;11.10;83.20;;;;;;4998814;28;20177;-89
2021/05/16 00:31:44;;;;;;;4.00;3.10;;;10.50;82.40;;;;;;5369593;23;20497;-88
2021/05/16 00:34:10;;;;;;;5.90;3.43;;;10.60;81.20;;;;;;4963706;28;20167;-90
2021/05/16 00:36:36;;;;;;;10.13;3.63;;;10.40;85.90;;;;;;4979763;28;20450;-90
2021/05/16 00:39:05;;;;;;;9.50;3.37;;;10.40;85.70;;;;;;4980164;28;20175;-89
2021/05/16 00:41:31;;;;;;;12.57;4.13;;;11.40;82.90;;;;;;4978853;28;20167;-91
2021/05/16 00:51:43;;;;;;;6.43;3.80;;;10.40;79.90;;;;;;5806056;23;20497;-89
2021/05/16 00:54:09;;;;;;;4.70;2.80;;;10.50;83.90;;;;;;4982058;28;20505;-89
2021/05/16 00:56:36;;;;;;;6.20;2.92;;;11.80;86.90;;;;;;4982244;28;20432;-90
2021/05/16 01:01:37;;;;;;;15.57;4.40;;;10.10;80.30;;;;;;5284370;22;20465;-89
2021/05/16 01:06:38;;;;;;;10.70;3.13;;;10.10;81.40;;;;;;5922919;22;20481;-89
2021/05/16 01:09:07;;;;;;;11.23;3.33;;;12.20;87.30;;;;;;4966888;28;20216;-89
2021/05/16 01:25:44;;;;;;;3.20;2.73;;;10.30;79.50;;;;;;4970045;28;20496;-90
2021/05/16 01:30:47;;;;;;;5.40;2.80;;;10.40;78.50;;;;;;5076245;22;20480;-89
2021/05/16 01:33:17;;;;;;;14.80;3.42;;;11.90;81.70;;;;;;4982632;28;20438;-90
2021/05/16 01:35:43;;;;;;;6.13;2.70;;;10.40;78.40;;;;;;4982421;28;20193;-91
2021/05/16 01:38:11;;;;;;;7.87;3.10;;;11.80;85.10;;;;;;4982266;28;20582;-90
2021/05/16 02:50:07;;;;;;;9.70;2.63;;;10.10;76.20;;;;;;4983166;28;20211;-90
2021/05/16 02:57:43;;;;;;;7.03;2.90;;;10.10;75.60;;;;;;5168352;23;20466;-90
2021/05/16 03:02:47;;;;;;;8.00;2.87;;;10.10;75.00;;;;;;5586069;22;20229;-92
2021/05/16 03:18:17;;;;;;;6.70;4.20;;;10.00;76.00;;;;;;5085131;22;20465;-89
2021/05/16 03:20:45;;;;;;;4.17;2.67;;;12.00;83.30;;;;;;4983498;28;20443;-90
2021/05/16 03:23:11;;;;;;;8.60;2.87;;;9.80;80.30;;;;;;4985053;28;20461;-89
2021/05/16 03:25:37;;;;;;;7.63;3.50;;;12.10;82.20;;;;;;5000639;28;20460;-89
2021/05/16 03:35:53;;;;;;;8.07;2.40;;;9.90;77.50;;;;;;5149331;22;20241;-89
2021/05/16 03:38:19;;;;;;;10.98;3.10;;;10.90;77.80;;;;;;4965207;28;20155;-89
2021/05/16 03:40:44;;;;;;;6.47;2.78;;;9.80;82.30;;;;;;4981472;28;20179;-89
2021/05/16 03:43:11;;;;;;;11.43;3.03;;;11.40;82.30;;;;;;4981711;28;20184;-90
2021/05/16 03:45:36;;;;;;;9.65;2.97;;;11.30;81.50;;;;;;4964558;28;21032;-89
2021/05/16 03:48:03;;;;;;;8.83;2.70;;;11.70;83.80;;;;;;4978904;28;20183;-90
2021/05/16 03:50:29;;;;;;;8.32;3.47;;;9.90;82.80;;;;;;4963805;28;20264;-90
2021/05/16 04:03:17;;;;;;;6.63;3.08;;;9.80;77.50;;;;;;5742196;22;20264;-90
2021/05/16 04:05:46;;;;;;;6.95;3.15;;;11.10;79.80;;;;;;4962829;28;20202;-89
2021/05/16 04:08:12;;;;;;;13.13;4.17;;;10.70;81.50;;;;;;4962858;29;20197;-90
2021/05/16 04:10:38;;;;;;;5.23;2.40;;;10.50;81.00;;;;;;4962561;29;20438;-90
2021/05/16 04:13:44;;;;;;;5.27;3.10;;;10.20;80.60;;;;;;4962574;28;20174;-90
2021/05/16 04:18:50;;;;;;;3.85;3.53;;;9.80;76.90;;;;;;6035818;22;20400;-90
2021/05/16 04:21:22;;;;;;;8.43;3.47;;;9.50;82.40;;;;;;4963332;28;20186;-91
2021/05/16 04:23:48;;;;;;;8.65;3.70;;;9.80;78.00;;;;;;4964518;28;20420;-90
2021/05/16 04:26:47;;;;;;;5.28;3.33;;;9.40;79.20;;;;;;4949730;28;20210;-87
2021/05/16 04:31:50;;;;;;;9.30;4.40;;;9.70;77.90;;;;;;5138203;22;20597;-90
2021/05/16 04:34:16;;;;;;;9.70;4.10;;;10.40;81.50;;;;;;4983354;28;20169;-90
2021/05/16 04:36:42;;;;;;;3.93;3.17;;;9.40;81.00;;;;;;5000032;28;20402;-90
2021/05/16 04:39:08;;;;;;;7.50;3.60;;;9.40;81.20;;;;;;4999408;28;20618;-90
2021/05/16 04:41:37;;;;;;;7.30;3.50;;;11.20;81.00;;;;;;4999433;28;20166;-89
2021/05/16 04:44:03;;;;;;;9.13;4.03;;;11.80;80.30;;;;;;4982019;28;20409;-90
2021/05/16 04:46:29;;;;;;;4.83;3.33;;;10.30;81.90;;;;;;4996758;28;20489;-90
2021/05/16 04:48:55;;;;;;;7.20;3.03;;;10.40;79.30;;;;;;4994009;28;20477;-90
2021/05/16 04:51:21;;;;;;;14.63;3.97;;;10.20;76.20;;;;;;4979767;28;20441;-90
2021/05/16 04:53:47;;;;;;;6.90;3.90;;;11.50;79.80;;;;;;4999586;28;20449;-91
2021/05/16 04:56:13;;;;;;;3.23;2.97;;;12.10;79.30;;;;;;4982434;28;20425;-88
2021/05/16 05:01:14;;;;;;;7.93;3.37;;;10.80;72.40;;;;;;5079590;22;20464;-88
2021/05/16 05:03:40;;;;;;;11.60;3.37;;;11.40;75.70;;;;;;4999419;28;20418;-89
2021/05/16 05:08:37;;;;;;;9.87;4.40;;;11.10;69.90;;;;;;4994187;28;20476;-90
2021/05/16 05:11:06;;;;;;;13.30;3.77;;;11.30;73.50;;;;;;4996407;28;20421;-89
2021/05/16 05:13:41;;;;;;;7.47;3.10;;;12.10;73.40;;;;;;4994988;28;20441;-91
2021/05/16 05:16:18;;;;;;;6.23;3.67;;;12.10;71.60;;;;;;4998251;28;20425;-91
2021/05/16 05:19:26;;;;;;;5.03;2.60;;;11.90;70.50;;;;;;4998097;28;20405;-90
2021/05/16 05:25:26;;;;;;;6.67;3.40;;;12.00;69.30;;;;;;4975796;28;20488;-91
2021/05/16 05:27:57;;;;;;;4.47;2.80;;;11.90;70.70;;;;;;4934267;28;20448;-90
2021/05/16 05:30:26;;;;;;;5.20;3.00;;;12.70;72.30;;;;;;4963934;28;20441;-91
2021/05/16 05:32:56;;;;;;;10.50;3.27;;;11.90;68.70;;;;;;4995063;28;20446;-92
2021/05/16 05:35:22;;;;;;;6.17;2.80;;;12.30;66.90;;;;;;4979125;28;20426;-90
2021/05/16 05:37:51;;;;;;;5.33;3.17;;;13.60;72.10;;;;;;4996083;28;20685;-90
2021/05/16 05:40:42;;;;;;;2.87;2.77;;;15.40;76.20;;;;;;4979551;28;20418;-90
2021/05/16 05:43:51;;;;;;;3.90;3.57;;;13.80;71.50;;;;;;4980856;28;20410;-90
2021/05/16 05:46:50;;;;;;;5.70;3.87;;;14.90;72.50;;;;;;4998523;28;20476;-89
2021/05/16 05:49:19;;;;;;;6.20;3.60;;;14.40;70.20;;;;;;4997270;28;20462;-90
2021/05/16 05:52:41;;;;;;;4.57;2.97;;;12.50;71.70;;;;;;4979213;28;20425;-90
2021/05/16 05:57:47;;;;;;;6.80;3.20;;;12.80;63.90;;;;;;5510932;22;20278;-89
2021/05/16 06:00:15;;;;;;;3.30;3.00;;;14.30;69.70;;;;;;4997038;28;20445;-90
2021/05/16 06:03:14;;;;;;;6.30;3.30;;;14.10;67.20;;;;;;4979347;28;20422;-90
2021/05/16 06:05:51;;;;;;;8.53;4.07;;;13.20;63.90;;;;;;4995425;28;20488;-89
2021/05/16 06:08:22;;;;;;;5.57;3.03;;;12.20;64.90;;;;;;4997261;28;20486;-89
2021/05/16 06:11:54;;;;;;;;;;;;;;;;;;;;;
2021/05/16 06:14:39;;;;;;;4.10;3.43;;;12.50;66.00;;;;;;5583470;22;20461;-90
2021/05/16 06:17:25;;;;;;;8.80;4.00;;;12.80;66.30;;;;;;4996646;28;20429;-89
2021/05/16 06:22:26;;;;;;;7.83;3.20;;;13.00;63.00;;;;;;5045103;23;20500;-90
2021/05/16 06:28:22;;;;;;;15.50;4.13;;;13.90;66.10;;;;;;4969074;28;20229;-85
2021/05/16 06:34:04;;;;;;;8.03;3.43;;;13.10;62.00;;;;;;5034842;22;20477;-91
2021/05/16 06:36:31;;;;;;;3.50;2.97;;;13.50;63.70;;;;;;5226216;22;20498;-91
2021/05/16 06:39:00;;;;;;;4.80;4.00;;;14.10;66.10;;;;;;4978671;28;20418;-90
2021/05/16 06:41:27;;;;;;;6.37;3.50;;;13.10;65.70;;;;;;4964175;28;20417;-89
2021/05/16 06:43:59;;;;;;;8.30;3.93;;;14.20;70.30;;;;;;4980215;28;20424;-91
2021/05/16 06:46:29;;;;;;;7.53;3.43;;;14.80;70.20;;;;;;5133734;22;20485;-89
2021/05/16 06:48:55;;;;;;;14.80;4.27;;;13.10;70.30;;;;;;4977943;28;20429;-90
2021/05/16 06:51:24;;;;;;;4.23;3.40;;;13.00;69.10;;;;;;5125007;23;20233;-90
2021/05/16 06:53:50;;;;;;;9.23;4.07;;;13.00;69.20;;;;;;4964680;28;20412;-91
2021/05/16 06:56:21;;;;;;;10.70;3.63;;;12.40;73.10;;;;;;4978593;28;20430;-90
2021/05/16 06:58:47;;;;;;;4.37;2.97;;;14.20;72.10;;;;;;4978948;28;20165;-89
2021/05/16 07:01:12;;;;;;;16.30;4.13;;;13.20;74.60;;;;;;4995342;28;20442;-90
2021/05/16 07:03:42;;;;;;;8.73;3.83;;;12.80;72.50;;;;;;4976936;28;20202;-90
2021/05/16 07:06:10;;;;;;;6.40;3.53;;;14.20;75.40;;;;;;4976097;28;20218;-90
2021/05/16 07:08:41;;;;;;;9.00;4.10;;;12.50;68.20;;;;;;4996111;28;20412;-90
2021/05/16 07:11:13;;;;;;;5.47;3.47;;;12.50;70.20;;;;;;4979295;28;20536;-90
2021/05/16 07:13:40;;;;;;;9.07;4.00;;;11.70;66.90;;;;;;4996516;28;20405;-90
2021/05/16 07:16:40;;;;;;;6.03;3.10;;;13.20;70.30;;;;;;4978379;28;20401;-89
2021/05/16 07:19:38;;;;;;;9.50;3.77;;;13.30;68.70;;;;;;4980681;28;20417;-92
2021/05/16 07:24:39;;;;;;;5.00;3.60;;;12.50;68.50;;;;;;4809808;23;10001497;-90
2021/05/16 07:32:17;;;;;;;9.80;4.10;;;12.60;67.20;;;;;;5163757;22;20476;-89
2021/05/16 07:34:45;;;;;;;10.43;4.00;;;12.50;72.20;;;;;;4981847;28;20411;-88
2021/05/16 07:37:16;;;;;;;10.40;3.97;;;12.80;69.40;;;;;;4972939;28;20457;-89
2021/05/16 07:42:20;;;;;;;9.73;3.43;;;12.60;67.80;;;;;;5223992;22;20515;-89
2021/05/16 07:47:22;;;;;;;8.87;4.23;;;13.10;67.10;;;;;;4190322;26;20570;-91
2021/05/16 07:49:55;;;;;;;8.23;4.20;;;16.70;79.80;;;;;;5126003;22;20489;-91
2021/05/16 07:52:22;;;;;;;5.70;3.50;;;13.60;62.50;;;;;;4976956;28;20409;-88
2021/05/16 07:54:47;;;;;;;6.23;3.00;;;13.80;66.30;;;;;;4992088;28;20407;-91
2021/05/16 08:10:42;;;;;;;3.60;3.27;;;15.20;57.90;;;;;;5714017;22;20458;-89
2021/05/16 08:28:46;;;;;;;7.27;3.50;;;15.10;57.00;;;;;;5372722;22;20481;-91
2021/05/16 08:34:09;;;;;;;7.37;3.37;;;14.40;60.70;;;;;;5883778;22;20481;-88
2021/05/16 08:52:27;;;;;;;4.27;2.33;;;13.70;62.80;;;;;;5283504;22;20218;-91
2021/05/16 09:05:38;;;;;;;5.43;3.10;;;13.10;70.30;;;;;;5826630;22;20489;-89
2021/05/16 09:13:26;;;;;;;3.70;2.50;;;13.20;68.10;;;;;;5821762;22;20502;-88
2021/05/16 09:16:11;;;;;;;2.93;2.50;;;14.50;68.70;;;;;;4991732;28;20412;-89
2021/05/16 09:18:46;;;;;;;7.17;3.33;;;14.00;67.20;;;;;;4986347;28;20421;-86
2021/05/16 09:23:59;;;;;;;2.23;2.10;;;15.50;58.80;;;;;;4974198;28;20459;-88
2021/05/16 09:26:28;;;;;;;5.27;1.90;;;16.40;57.20;;;;;;4972391;28;20473;-86
2021/05/16 09:28:54;;;;;;;2.23;2.13;;;16.90;57.40;;;;;;4972203;28;20833;-86
2021/05/16 09:31:36;;;;;;;3.80;2.43;;;17.30;55.80;;;;;;4954596;28;20429;-87
2021/05/16 09:34:03;;;;;;;3.27;2.20;;;17.70;55.60;;;;;;4954444;28;20881;-87
2021/05/16 09:36:40;;;;;;;5.67;2.30;;;18.00;52.60;;;;;;4972331;28;20413;-86
2021/05/16 09:39:17;;;;;;;2.07;1.90;;;18.90;51.80;;;;;;4954562;28;20904;-86
2021/05/16 09:42:04;;;;;;;6.90;2.60;;;19.50;49.20;;;;;;4972173;28;20429;-86
2021/05/16 09:44:45;;;;;;;6.87;3.20;;;18.60;50.10;;;;;;4955320;28;20447;-86
2021/05/16 09:47:16;;;;;;;4.70;2.65;;;18.00;51.40;;;;;;4627949;28;9999736;-86
2021/05/16 09:49:54;;;;;;;5.33;2.60;;;17.70;53.20;;;;;;4973386;28;20573;-87
2021/05/16 09:52:24;;;;;;;2.10;2.00;;;17.40;51.90;;;;;;4973273;28;20827;-87
2021/05/16 09:55:08;;;;;;;2.77;2.27;;;17.20;51.20;;;;;;4957477;28;20413;-87
2021/05/16 09:57:36;;;;;;;4.57;2.17;;;17.40;51.30;;;;;;4628954;28;10000160;-86
2021/05/16 10:00:05;;;;;;;3.57;2.47;;;17.00;52.10;;;;;;4972441;28;20177;-86
2021/05/16 10:02:31;;;;;;;15.03;3.50;;;16.30;52.10;;;;;;4972206;28;20417;-85
2021/05/16 10:05:00;;;;;;;3.67;2.40;;;15.60;52.60;;;;;;4973067;28;20916;-87
2021/05/16 10:07:26;;;;;;;3.60;1.83;;;15.80;54.10;;;;;;4954349;28;20224;-86
2021/05/16 10:09:53;;;;;;;2.20;2.00;;;16.50;53.00;;;;;;4971545;28;20428;-87
2021/05/16 10:12:19;;;;;;;1.73;1.57;;;16.70;51.70;;;;;;4954544;28;20434;-85
2021/05/16 10:15:08;;;;;;;3.60;2.07;;;16.80;51.20;;;;;;4972866;28;20465;-86
2021/05/16 10:17:39;;;;;;;3.90;2.10;;;17.70;49.90;;;;;;4955785;28;20429;-87
2021/05/16 10:20:17;;;;;;;2.30;1.63;;;19.50;49.10;;;;;;4954645;28;20488;-86
2021/05/16 10:22:57;;;;;;;1.93;1.77;;;20.50;45.90;;;;;;4968040;28;20433;-87
2021/05/16 10:25:46;;;;;;;0.93;0.93;;;21.00;42.60;;;;;;4972589;28;20484;-87
2021/05/16 10:28:16;;;;;;;2.53;1.50;;;21.40;41.10;;;;;;4972118;28;20417;-87
2021/05/16 10:31:01;;;;;;;2.30;1.83;;;21.40;40.30;;;;;;4971346;28;20440;-87
2021/05/16 10:33:31;;;;;;;2.43;1.13;;;22.00;41.20;;;;;;4953592;28;20425;-86
2021/05/16 10:35:57;;;;;;;1.27;1.27;;;21.90;39.80;;;;;;4971552;28;20881;-86
2021/05/16 10:38:45;;;;;;;2.90;1.60;;;21.00;39.90;;;;;;4953435;28;20611;-87
2021/05/16 10:41:15;;;;;;;1.80;1.70;;;19.00;42.60;;;;;;4970837;28;20264;-87
2021/05/16 10:43:41;;;;;;;3.87;1.80;;;17.70;45.00;;;;;;4954831;28;20457;-88
2021/05/16 10:46:46;;;;;;;3.23;1.20;;;16.00;52.40;;;;;;4972449;28;20465;-86
2021/05/16 10:49:33;;;;;;;2.10;1.50;;;14.90;55.80;;;;;;4984147;28;20173;-90
2021/05/16 10:52:29;;;;;;;3.10;1.63;;;14.20;57.60;;;;;;4988203;28;20444;-86
2021/05/16 10:55:11;;;;;;;3.30;1.73;;;14.20;58.50;;;;;;4972581;28;20429;-92
2021/05/16 10:57:43;;;;;;;1.30;1.20;;;15.60;62.10;;;;;;4955844;28;20451;-91
2021/05/16 11:00:43;;;;;;;2.27;1.33;;;15.40;58.50;;;;;;4970443;28;20449;-90
2021/05/16 11:03:14;;;;;;;3.43;1.60;;;16.10;57.80;;;;;;4969691;28;20413;-91
2021/05/16 11:05:57;;;;;;;1.63;1.63;;;16.70;57.30;;;;;;4975864;28;20461;-91
2021/05/16 11:08:22;;;;;;;1.60;1.30;;;17.10;55.40;;;;;;4978598;28;20401;-89
2021/05/16 11:10:55;;;;;;;2.17;2.07;;;18.30;53.50;;;;;;4975906;28;20718;-90
2021/05/16 11:13:31;;;;;;;1.90;1.20;;;18.50;53.00;;;;;;4962902;28;20232;-90
2021/05/16 11:16:10;;;;;;;1.50;1.40;;;19.80;49.80;;;;;;4996294;28;20545;-89
2021/05/16 11:18:36;;;;;;;1.47;0.90;;;20.60;48.40;;;;;;4976877;28;20442;-90
2021/05/16 11:21:11;;;;;;;3.90;1.10;;;21.10;46.90;;;;;;4978249;28;20429;-89
2021/05/16 11:23:38;;;;;;;1.00;1.00;;;21.00;44.40;;;;;;4978535;28;20397;-90
2021/05/16 11:26:12;;;;;;;1.60;1.00;;;20.80;45.10;;;;;;4978807;28;20456;-90
2021/05/16 11:28:45;;;;;;;2.43;1.10;;;20.90;44.20;;;;;;4976181;28;20421;-91
2021/05/16 11:31:12;;;;;;;2.00;1.37;;;20.50;43.10;;;;;;4976823;28;20418;-86
2021/05/16 11:33:40;;;;;;;2.30;1.17;;;21.40;46.00;;;;;;4983316;28;20414;-88
2021/05/16 11:36:14;;;;;;;2.30;1.57;;;19.90;44.10;;;;;;4978401;28;20493;-87
2021/05/16 11:38:42;;;;;;;1.80;1.20;;;20.20;46.20;;;;;;4977948;28;20820;-88
2021/05/16 11:41:28;;;;;;;6.60;1.97;;;19.50;45.30;;;;;;4978172;28;20448;-88
2021/05/16 11:43:54;;;;;;;1.53;1.30;;;20.30;46.10;;;;;;4977457;28;20620;-87
2021/05/16 11:46:29;;;;;;;1.40;1.37;;;21.70;43.50;;;;;;4978124;28;20468;-88
2021/05/16 11:48:54;;;;;;;3.83;3.07;;;23.10;41.90;;;;;;4984393;28;20428;-87
2021/05/16 11:51:21;;;;;;;1.67;1.57;;;23.90;39.90;;;;;;4991116;28;20413;-87
2021/05/16 11:54:08;;;;;;;2.30;2.10;;;24.40;35.20;;;;;;4989836;28;20189;-86
2021/05/16 11:56:43;;;;;;;1.20;1.10;;;24.30;36.70;;;;;;4968983;28;20413;-88
2021/05/16 11:59:09;;;;;;;2.30;1.60;;;23.80;34.60;;;;;;4959840;28;20466;-87
2021/05/16 12:01:40;;;;;;;1.93;1.83;;;22.80;36.00;;;;;;4977712;28;20405;-88
2021/05/16 12:04:15;;;;;;;2.73;2.00;;;21.70;38.20;;;;;;4977694;28;20410;-89
2021/05/16 12:06:43;;;;;;;3.13;1.50;;;21.60;39.40;;;;;;4976714;28;20547;-89
2021/05/16 12:09:15;;;;;;;1.77;1.67;;;21.30;38.40;;;;;;4959385;28;20778;-88
2021/05/16 12:11:42;;;;;;;3.97;2.30;;;20.20;40.20;;;;;;4959807;28;20436;-89
2021/05/16 12:14:11;;;;;;;4.20;2.73;;;19.60;42.00;;;;;;4958932;28;20473;-89
2021/05/16 12:16:38;;;;;;;2.10;1.93;;;19.30;42.20;;;;;;4959226;28;20428;-87
2021/05/16 12:19:04;;;;;;;1.80;1.70;;;19.40;41.60;;;;;;4959664;28;20428;-88
2021/05/16 12:21:31;;;;;;;1.60;1.50;;;19.20;42.10;;;;;;4977393;28;20909;-88
2021/05/16 12:24:00;;;;;;;1.97;1.93;;;19.30;43.10;;;;;;4959738;28;20425;-88
2021/05/16 12:26:27;;;;;;;2.43;1.87;;;19.80;42.80;;;;;;4960154;28;20461;-89
2021/05/16 12:28:53;;;;;;;2.87;2.30;;;19.50;41.00;;;;;;4960427;28;20476;-88
2021/05/16 12:31:28;;;;;;;6.90;1.83;;;19.20;42.40;;;;;;5062290;22;20419;-88
2021/05/16 12:33:58;;;;;;;1.80;1.70;;;18.90;42.90;;;;;;5028109;23;20575;-86
2021/05/16 12:36:24;;;;;;;2.30;2.10;;;18.70;42.90;;;;;;4956696;29;20504;-85
2021/05/16 12:38:51;;;;;;;1.80;1.70;;;18.70;42.00;;;;;;4954510;29;20481;-85
2021/05/16 12:41:22;;;;;;;2.03;1.73;;;18.80;42.40;;;;;;4956394;29;20245;-86
2021/05/16 12:44:24;;;;;;;1.90;1.80;;;19.20;41.70;;;;;;4956329;29;20435;-85
2021/05/16 12:46:50;;;;;;;2.40;1.70;;;19.70;39.70;;;;;;4896619;29;20520;-85
2021/05/16 12:49:24;;;;;;;1.20;1.20;;;19.70;40.10;;;;;;4944215;29;20518;-85
2021/05/16 12:51:58;;;;;;;2.67;1.97;;;19.40;39.00;;;;;;4955619;29;20469;-84
2021/05/16 12:54:30;;;;;;;2.63;1.40;;;19.20;39.60;;;;;;4954021;29;20501;-85
2021/05/16 12:57:02;;;;;;;3.60;1.73;;;19.20;39.90;;;;;;4954629;29;20438;-85
2021/05/16 12:59:37;;;;;;;2.37;2.00;;;19.00;40.30;;;;;;4955615;28;20449;-84
2021/05/16 13:02:13;;;;;;;2.63;1.60;;;19.00;41.10;;;;;;4946246;29;20434;-84
2021/05/16 13:04:55;;;;;;;1.97;1.50;;;19.00;41.90;;;;;;4952917;29;20473;-86
2021/05/16 13:07:42;;;;;;;1.93;1.50;;;18.80;40.50;;;;;;4955016;29;20430;-84
2021/05/16 13:10:42;;;;;;;5.10;4.80;;;18.70;41.00;;;;;;4271853;28;10000715;-86
2021/05/16 13:13:18;;;;;;;1.93;1.83;;;18.60;40.60;;;;;;4965190;29;20419;-88
2021/05/16 13:15:46;;;;;;;1.13;1.10;;;18.60;40.80;;;;;;4969205;29;20441;-89
2021/05/16 13:18:30;;;;;;;3.10;1.83;;;18.60;41.20;;;;;;4966611;29;20441;-91
2021/05/16 13:20:58;;;;;;;1.93;1.87;;;18.80;41.20;;;;;;4950409;29;20493;-90
2021/05/16 13:23:27;;;;;;;1.93;1.57;;;19.10;40.80;;;;;;4964764;29;20422;-89
2021/05/16 13:25:55;;;;;;;1.50;1.40;;;20.40;40.40;;;;;;4964330;29;20470;-90
2021/05/16 13:28:30;;;;;;;2.23;1.80;;;22.70;38.20;;;;;;4960696;28;20416;-89
2021/05/16 13:31:03;;;;;;;3.20;2.50;;;21.80;36.20;;;;;;4963657;29;20433;-89
2021/05/16 13:33:37;;;;;;;1.73;1.60;;;22.00;37.50;;;;;;4975427;28;20445;-89
2021/05/16 13:36:08;;;;;;;2.83;2.07;;;20.10;38.20;;;;;;4969406;28;20900;-90
2021/05/16 13:38:51;;;;;;;1.43;1.37;;;19.90;39.00;;;;;;4985815;28;20488;-90
2021/05/16 13:41:17;;;;;;;3.20;1.13;;;20.40;39.00;;;;;;4990462;28;20405;-89
2021/05/16 13:43:46;;;;;;;1.80;1.30;;;21.20;37.30;;;;;;4984201;28;20166;-91
2021/05/16 13:46:18;;;;;;;1.23;1.13;;;21.90;36.00;;;;;;4968911;28;20533;-90
2021/05/16 13:48:45;;;;;;;1.37;1.27;;;21.80;35.90;;;;;;4970345;28;20456;-88
2021/05/16 13:51:20;;;;;;;3.57;1.83;;;21.00;35.70;;;;;;4986315;28;20432;-89
2021/05/16 13:53:46;;;;;;;3.10;1.70;;;20.90;36.70;;;;;;4993010;28;20425;-89
2021/05/16 13:56:12;;;;;;;1.50;1.40;;;20.60;38.00;;;;;;4959432;28;20460;-88
2021/05/16 13:58:56;;;;;;;2.33;2.23;;;20.30;38.40;;;;;;4956151;28;20421;-88
2021/05/16 14:01:47;;;;;;;1.60;1.50;;;20.10;38.80;;;;;;4970118;28;20429;-88
2021/05/16 14:04:21;;;;;;;1.90;1.60;;;19.80;39.60;;;;;;4983673;28;20449;-89
2021/05/16 14:06:49;;;;;;;1.20;1.20;;;19.30;40.20;;;;;;4987965;28;20472;-90
2021/05/16 14:09:28;;;;;;;4.23;1.50;;;19.00;41.20;;;;;;4990315;28;20429;-89
2021/05/16 14:11:58;;;;;;;1.40;1.40;;;19.00;40.50;;;;;;4970963;28;20432;-90
2021/05/16 14:14:25;;;;;;;1.40;1.40;;;18.90;41.00;;;;;;4969120;28;20456;-92
2021/05/16 14:17:02;;;;;;;1.20;1.10;;;18.80;41.70;;;;;;4970251;28;20429;-90
2021/05/16 14:19:29;;;;;;;2.43;1.10;;;19.30;41.90;;;;;;4987841;28;20418;-90
2021/05/16 14:21:54;;;;;;;1.30;1.20;;;20.40;42.10;;;;;;4974359;28;20421;-90
2021/05/16 14:24:27;;;;;;;2.00;1.03;;;19.10;41.00;;;;;;4989448;28;20174;-90
2021/05/16 14:26:57;;;;;;;1.87;1.77;;;19.00;40.90;;;;;;4990335;28;20208;-91
2021/05/16 14:29:26;;;;;;;1.37;1.07;;;19.00;41.80;;;;;;4973177;28;20451;-89
2021/05/16 14:31:52;;;;;;;1.30;1.10;;;19.60;42.10;;;;;;4957354;28;20409;-91
2021/05/16 14:34:21;;;;;;;1.70;1.30;;;20.30;40.80;;;;;;4971746;28;20476;-89
2021/05/16 14:36:47;;;;;;;1.50;1.40;;;19.80;39.80;;;;;;4968249;28;20950;-88
2021/05/16 14:39:17;;;;;;;2.00;1.60;;;20.50;40.70;;;;;;4971907;28;20417;-89
2021/05/16 14:41:46;;;;;;;1.73;1.63;;;20.20;41.60;;;;;;4962929;28;20920;-90
2021/05/16 14:44:12;;;;;;;1.50;1.40;;;19.70;41.60;;;;;;4953491;29;20438;-89
2021/05/16 14:46:39;;;;;;;2.73;1.23;;;20.60;43.20;;;;;;4954113;29;20497;-90
2021/05/16 14:49:05;;;;;;;2.07;1.97;;;20.00;44.10;;;;;;4950863;29;20893;-89
2021/05/16 14:51:31;;;;;;;1.60;1.50;;;19.70;45.20;;;;;;4951459;29;20445;-89
2021/05/16 14:54:02;;;;;;;2.87;1.63;;;18.60;45.60;;;;;;4952420;29;20419;-91
2021/05/16 14:56:28;;;;;;;1.80;1.70;;;18.30;45.00;;;;;;4923155;29;20487;-88
2021/05/16 14:58:55;;;;;;;3.90;1.20;;;19.30;45.90;;;;;;4956388;29;20425;-89
2021/05/16 15:01:41;;;;;;;1.10;1.10;;;18.10;46.70;;;;;;4974254;29;20450;-88
2021/05/16 15:04:14;;;;;;;2.87;1.97;;;18.10;46.00;;;;;;4943701;29;20457;-88
2021/05/16 15:06:42;;;;;;;1.20;1.20;;;18.10;45.60;;;;;;4975056;29;20515;-89
2021/05/16 15:09:23;;;;;;;2.97;0.80;;;18.40;44.30;;;;;;4956990;29;20926;-90
2021/05/16 15:11:49;;;;;;;0.63;0.40;;;18.40;41.50;;;;;;4964748;28;20935;-91
2021/05/16 15:14:16;;;;;;;0.50;0.50;;;17.90;40.50;;;;;;4972659;28;20409;-89
2021/05/16 15:16:41;;;;;;;0.60;0.57;;;18.50;41.60;;;;;;4966397;28;20177;-88
2021/05/16 15:19:07;;;;;;;0.80;0.80;;;19.80;42.10;;;;;;4984861;28;20757;-88
2021/05/16 15:21:33;;;;;;;0.60;0.57;;;18.40;41.60;;;;;;4968577;28;20177;-87
2021/05/16 15:24:01;;;;;;;0.80;0.80;;;18.20;43.20;;;;;;4984564;28;20177;-88
2021/05/16 15:26:29;;;;;;;1.13;1.03;;;18.70;43.10;;;;;;4966624;28;20206;-88
2021/05/16 15:28:55;;;;;;;1.40;1.40;;;19.80;44.30;;;;;;4967331;28;20532;-88
2021/05/16 15:31:25;;;;;;;0.60;0.60;;;18.60;44.00;;;;;;4966797;28;20815;-89
2021/05/16 15:33:52;;;;;;;1.00;1.00;;;17.80;44.60;;;;;;4991341;28;20469;-88
2021/05/16 15:36:20;;;;;;;3.20;0.90;;;17.70;45.30;;;;;;4992287;28;20424;-90
2021/05/16 15:39:04;;;;;;;0.70;0.70;;;17.60;44.50;;;;;;4976099;28;20173;-90
2021/05/16 15:41:41;;;;;;;3.73;1.13;;;17.80;45.40;;;;;;4977125;28;20432;-90
2021/05/16 15:44:08;;;;;;;0.93;0.83;;;17.80;45.80;;;;;;4962219;28;20446;-90
2021/05/16 15:46:34;;;;;;;0.83;0.80;;;17.40;45.50;;;;;;4993556;28;20469;-91
2021/05/16 15:49:01;;;;;;;1.10;1.10;;;17.40;46.70;;;;;;4979014;28;20759;-92
2021/05/16 15:51:32;;;;;;;1.23;1.00;;;17.40;46.60;;;;;;4962399;28;20440;-90
2021/05/16 15:54:26;;;;;;;3.50;0.93;;;17.30;47.00;;;;;;4977952;28;20425;-89
2021/05/16 15:57:08;;;;;;;1.37;1.13;;;18.80;48.50;;;;;;4974620;28;20882;-90
2021/05/16 15:59:43;;;;;;;1.00;1.00;;;17.50;46.90;;;;;;4944217;29;20519;-90
2021/05/16 16:02:11;;;;;;;1.10;1.10;;;17.60;46.90;;;;;;4977337;28;20450;-90
2021/05/16 16:05:00;;;;;;;0.80;0.80;;;17.60;47.20;;;;;;4950732;29;20469;-90
2021/05/16 16:07:26;;;;;;;0.80;0.80;;;17.50;46.70;;;;;;4979560;28;20425;-92
2021/05/16 16:09:52;;;;;;;0.70;0.70;;;17.40;48.00;;;;;;4976260;28;20947;-88
2021/05/16 16:12:18;;;;;;;0.80;0.80;;;17.50;48.80;;;;;;4988742;28;20426;-89
2021/05/16 16:14:52;;;;;;;2.17;1.87;;;17.40;48.90;;;;;;4974617;28;20421;-90
2021/05/16 16:17:34;;;;;;;0.80;0.80;;;16.50;48.20;;;;;;4974996;28;20413;-87
2021/05/16 16:20:21;;;;;;;2.13;1.30;;;17.20;48.70;;;;;;5184877;23;20432;-89
2021/05/16 16:22:55;;;;;;;0.80;0.80;;;16.60;48.60;;;;;;4944622;28;20445;-90
2021/05/16 16:25:22;;;;;;;1.10;1.10;;;17.30;48.10;;;;;;4954483;29;20485;-89
2021/05/16 16:27:49;;;;;;;1.27;1.00;;;16.70;48.00;;;;;;4947154;29;20422;-88
2021/05/16 16:30:16;;;;;;;0.73;0.73;;;17.00;47.50;;;;;;4932067;29;20422;-90
2021/05/16 16:32:42;;;;;;;1.60;1.50;;;17.00;47.90;;;;;;4945396;29;20427;-88
2021/05/16 16:35:08;;;;;;;1.60;1.60;;;17.30;49.90;;;;;;4945055;29;20418;-89
2021/05/16 16:37:33;;;;;;;1.50;1.40;;;16.50;48.50;;;;;;4965051;29;20418;-88
2021/05/16 16:40:05;;;;;;;1.23;1.23;;;17.40;50.30;;;;;;4966107;29;20460;-90
2021/05/16 16:42:32;;;;;;;1.83;1.73;;;16.50;49.30;;;;;;4957054;29;20182;-90
2021/05/16 16:44:59;;;;;;;0.90;0.90;;;17.20;50.80;;;;;;4968580;29;20411;-91
2021/05/16 16:47:27;;;;;;;1.07;1.00;;;17.90;51.70;;;;;;4954844;29;20466;-88
2021/05/16 16:49:52;;;;;;;0.80;0.80;;;15.10;50.30;;;;;;4971336;29;20178;-89
2021/05/16 16:52:31;;;;;;;1.17;1.10;;;17.30;52.50;;;;;;4977182;28;20470;-89
2021/05/16 16:58:18;;;;;;;1.63;0.93;;;15.60;54.20;;;;;;4974441;28;20477;-89
2021/05/16 17:00:53;;;;;;;1.60;1.50;;;14.60;55.20;;;;;;4952825;28;20985;-90
2021/05/16 17:03:19;;;;;;;4.20;1.80;;;;;;;;;;4960616;29;20418;-90
2021/05/16 17:05:45;;;;;;;1.60;1.47;;;;;;;;;;4940580;29;20207;-89
2021/05/16 17:08:14;;;;;;;4.07;1.80;;;;;;;;;;4937314;29;20434;-87
2021/05/16 17:10:41;;;;;;;0.93;0.93;;;;;;;;;;4936616;29;20423;-90
2021/05/16 17:13:07;;;;;;;2.83;1.33;;;;;;;;;;4935106;29;20242;-89
2021/05/16 17:15:32;;;;;;;1.83;1.73;;;;;;;;;;4934040;29;20504;-90
2021/05/16 17:17:59;;;;;;;2.80;2.70;;;;;;;;;;4936279;29;20454;-90
2021/05/16 17:20:27;;;;;;;2.03;1.93;;;11.70;67.00;;;;;;4935630;29;20441;-89
2021/05/16 17:22:54;;;;;;;2.63;2.10;;;11.10;70.50;;;;;;4935296;29;20439;-88
2021/05/16 17:25:20;;;;;;;1.50;1.50;;;11.70;72.80;;;;;;4934091;29;20426;-90
2021/05/16 17:30:32;;;;;;;1.60;1.00;;;11.90;74.40;;;;;;4936763;29;20182;-89
2021/05/16 17:33:00;;;;;;;1.20;1.20;;;12.10;67.50;;;;;;4937977;29;20427;-90
2021/05/16 17:35:26;;;;;;;1.40;1.30;;;12.60;70.40;;;;;;4940017;29;20204;-91
2021/05/16 17:37:57;;;;;;;1.30;1.20;;;13.30;71.00;;;;;;4939448;29;20415;-90
2021/05/16 17:40:22;;;;;;;10.43;8.07;;;12.20;71.10;;;;;;4939906;29;20185;-90
2021/05/16 17:42:48;;;;;;;1.77;1.70;;;11.80;72.10;;;;;;4940047;29;20483;-90
2021/05/16 17:45:15;;;;;;;1.90;1.00;;;12.80;72.90;;;;;;4943171;29;20175;-90